Ebervale, Pennsylvania
Current Conditions -  °F | °C
As of 3:15 PM on Wednesday 26 Nov 2014 (Local Time) from KHZL Reporting Station
Light Snow Light Snow  
Wind Chill: 24°   Ceiling: 300
Heat Index: 32°   Visibility: 1.2mi
Dew Point: 30°   Wind: 10mph
Humidity: 93%   Direction: 330°NNW
Pressure: 29.92"   Gusts: 16mph
Location:  40.99°N, 75.94°W
Report Text: KHZL 262015Z AUTO 33009G14KT 1 1/4SM -SN OVC003 00/M01 A2992 RMK AO2
Loading
Personal Weather Stations






























Interactive Weather Map New forecast layout! Learn more

10-Day Weather Forecast

Advertisements
Track Severe Weather on mobile